CDT,Max TemperatureF,Mean TemperatureF,Min TemperatureF,Max Dew PointF,MeanDew PointF,Min DewpointF,Max Humidity, Mean Humidity, Min Humidity, Max Sea Level PressureIn, Mean Sea Level PressureIn, Min Sea Level PressureIn, Max VisibilityMiles, Mean VisibilityMiles, Min VisibilityMiles, Max Wind SpeedMPH, Mean Wind SpeedMPH, Max Gust SpeedMPH,PrecipitationIn, CloudCover, Events, WindDirDegrees
2013-9-1,73,65,56,61,57,49,87,75,63,30.00,29.80,29.67,10,10,10,23,12,31,0.00,6,,317
2013-9-2,67,58,48,48,47,45,83,66,48,30.11,30.06,30.00,10,10,2,17,5,20,T,5,Rain,344
2013-9-3,79,63,46,58,51,42,86,63,40,30.07,30.01,29.95,10,10,10,17,9,21,0.00,0,,263
2013-9-4,70,61,52,59,53,48,90,72,53,30.22,30.12,29.96,10,10,9,17,6,23,0.00,4,,80
2013-9-5,74,60,45,54,48,41,82,63,44,30.30,30.23,30.13,10,10,10,12,5,15,0.00,0,,117
2013-9-6,88,74,60,68,62,52,93,70,46,30.12,29.97,29.86,10,10,7,20,8,25,0.00,2,,222
2013-9-7,84,72,59,68,63,55,90,73,55,30.13,29.99,29.86,10,10,7,21,8,25,0.00,3,,52
2013-9-8,66,61,56,56,54,52,87,75,63,30.16,30.07,29.94,10,10,10,17,9,21,T,6,Rain,97
2013-9-9,67,63,59,64,59,55,93,89,84,29.93,29.79,29.69,10,2,0,22,6,26,0.32,8,Fog-Rain,119
2013-9-10,79,70,60,64,62,58,93,74,54,29.94,29.82,29.73,10,7,0,17,9,22,T,5,Fog-Rain,269
2013-9-11,78,66,54,60,54,48,90,63,36,30.08,29.98,29.94,10,10,10,23,10,30,0.02,2,Rain,288
2013-9-12,67,55,43,52,47,40,93,68,42,30.27,30.17,30.08,10,10,10,20,9,28,0.00,4,,336
2013-9-13,67,53,38,47,42,36,86,65,44,30.30,30.22,30.09,10,10,7,10,4,14,0.00,2,,175
2013-9-14,69,60,50,52,47,42,86,67,48,30.07,29.99,29.92,10,10,9,24,11,30,0.16,3,Rain,239
2013-9-15,57,48,38,52,48,37,89,83,77,30.36,30.16,29.96,10,6,1,17,6,24,0.08,6,Fog-Rain,74
2013-9-16,63,50,37,45,40,35,92,70,48,30.45,30.38,30.29,10,7,0,10,5,18,0.00,1,Fog,164
2013-9-17,70,57,44,52,45,37,82,65,47,30.29,30.13,29.97,10,10,10,21,9,26,0.00,2,,171
2013-9-18,65,62,58,62,58,52,97,89,80,29.96,29.83,29.76,10,2,0,13,8,16,0.05,8,Fog-Rain,130
2013-9-19,69,66,63,65,63,59,93,90,87,29.78,29.71,29.64,10,3,0,17,7,23,0.25,7,Fog-Rain-Thunderstorm,205
2013-9-20,63,56,49,59,51,42,90,71,51,29.88,29.76,29.70,10,10,4,22,12,31,0.02,6,Rain,308
2013-9-21,61,53,44,43,38,36,89,66,42,30.00,29.95,29.88,10,10,10,16,8,23,T,4,,338
2013-9-22,60,51,41,47,41,35,89,71,53,30.06,30.01,29.96,10,9,2,20,11,25,0.00,0,,117
2013-9-23,66,58,50,51,47,44,83,70,56,30.00,29.97,29.95,10,10,10,14,11,20,0.00,0,,130
2013-9-24,71,60,49,52,49,47,89,71,53,30.02,29.99,29.96,10,10,10,12,7,16,0.00,0,,140
2013-9-25,69,59,48,54,50,46,96,77,57,30.03,29.99,29.94,10,4,0,13,8,15,0.00,3,Fog,110
2013-9-26,67,60,52,54,52,50,96,80,63,30.02,29.98,29.94,10,5,0,21,12,25,0.00,2,Fog,113
2013-9-27,71,65,58,60,55,51,80,71,61,29.98,29.91,29.83,10,10,10,18,11,24,0.01,2,Rain,141
2013-9-28,70,57,43,61,53,40,93,75,57,29.88,29.68,29.55,10,7,1,33,14,44,0.35,6,Rain,214
2013-9-29,71,57,42,46,43,39,89,61,33,29.93,29.87,29.78,10,10,10,18,10,23,0.00,0,,210
2013-9-30,74,66,57,51,48,44,67,56,44,29.76,29.65,29.60,10,10,10,22,12,26,0.00,1,,195